Latest Weather Observations for Southern Cross Airport

IDW60801

Issued at 5:53 am WST Wednesday 8 December 2021 (issued every 10 minutes, with the page automatically refreshed every 10 minutes)

About weather observations | Map of weather stations | Latest weather observations for WA | Other Formats
Station Details ID: 012320 Name: SOUTHERN CROSS AIRFIELD Lat: -31.24 Lon: 119.36 Height: 347.4 m
Data from the previous 72 hours. | See also: Recent months at Southern Cross Airport
Date/Time
WST
Temp
°C
App
Temp
°C
Dew
Point
°C
Rel
Hum
%
Delta-T
°C
Wind Press
QNH
hPa
Press
MSL
hPa
Rain since
9am
mm
Dir  Spd
km/h
Gust
km/h
Spd
kts
Gust
kts
08/05:30am 21.6 14.6 5.9 36 8.0 ENE 32 41 17 22 1016.2 1014.4 0.0
08/05:00am 22.2 16.3 6.0 35 8.3 ENE 26 37 14 20 1015.7 1013.9 0.0
08/04:30am 22.6 16.1 6.4 35 8.4 NE 30 43 16 23 1015.1 1013.3 0.0
08/04:00am 23.0 16.1 6.3 34 8.7 ENE 32 41 17 22 1014.5 1012.7 0.0
08/03:44am 23.2 14.2 6.5 34 8.7 ENE 43 61 23 33 1012.5 1010.7 0.0
08/03:30am 23.3 13.9 7.0 35 8.6 ENE 46 61 25 33 1012.0 1010.1 0.0
08/03:16am 23.5 17.2 7.2 35 8.6 E 30 52 16 28 1013.7 1011.9 0.0
08/03:00am 23.9 19.4 7.1 34 8.9 ENE 20 28 11 15 1015.6 1013.8 0.0
08/02:30am 24.1 18.2 7.3 34 8.9 ENE 28 39 15 21 1015.3 1013.5 0.0
08/02:00am 24.2 19.8 7.4 34 8.9 NE 20 30 11 16 1016.0 1014.2 0.0
08/01:30am 24.5 20.1 7.6 34 9.1 NE 20 26 11 14 1016.3 1014.5 0.0
08/01:00am 24.7 19.6 7.8 34 9.1 ENE 24 35 13 19 1015.9 1014.1 0.0
08/12:30am 24.9 19.4 7.5 33 9.3 ENE 26 39 14 21 1015.9 1014.1 0.0
08/12:00am 25.1 20.0 7.7 33 9.4 ENE 24 32 13 17 1016.2 1014.4 0.0
 
Date/Time
WST
Temp
°C
App
Temp
°C
Dew
Point
°C
Rel
Hum
%
Delta-T
°C
Wind Press
QNH
hPa
Press
MSL
hPa
Rain since
9am
mm
Dir  Spd
km/h
Gust
km/h
Spd
kts
Gust
kts
07/11:30pm 25.3 20.3 7.9 33 9.4 ENE 24 33 13 18 1015.7 1013.9 0.0
07/11:00pm 25.6 20.6 8.1 33 9.5 ENE 24 33 13 18 1015.6 1013.8 0.0
07/10:30pm 25.9 20.1 8.0 32 9.7 E 28 39 15 21 1015.0 1013.2 0.0
07/10:00pm 26.2 20.5 8.2 32 9.8 E 28 41 15 22 1015.0 1013.2 0.0
07/09:30pm 26.5 20.7 8.0 31 10.1 E 28 43 15 23 1014.7 1012.8 0.0
07/09:00pm 27.0 20.9 8.4 31 10.2 E 30 41 16 22 1014.3 1012.5 0.0
07/08:30pm 27.6 22.7 8.5 30 10.6 E 24 35 13 19 1014.4 1012.6 0.0
07/08:00pm 28.2 23.3 8.5 29 10.9 E 24 33 13 18 1014.2 1012.4 0.0
07/07:30pm 28.9 24.0 8.6 28 11.3 E 24 33 13 18 1013.9 1012.1 0.0
07/07:00pm 29.9 25.2 7.8 25 12.2 ENE 22 32 12 17 1013.6 1011.8 0.0
07/06:30pm 30.6 25.9 7.7 24 12.7 ENE 22 35 12 19 1013.6 1011.8 0.0
07/06:00pm 31.2 26.1 7.6 23 13.1 ENE 24 35 13 19 1013.3 1011.5 0.0
07/05:30pm 32.2 26.4 7.8 22 13.7 ENE 28 41 15 22 1013.0 1011.2 0.0
07/05:00pm 32.4 26.5 7.3 21 14.0 ENE 28 39 15 21 1012.8 1011.0 0.0
07/04:30pm 33.5 27.2 7.5 20 14.6 ENE 30 46 16 25 1012.8 1011.0 0.0
07/04:00pm 33.0 26.8 7.8 21 14.2 NE 30 41 16 22 1012.8 1011.0 0.0
07/03:30pm 32.4 26.6 8.0 22 13.7 ENE 28 48 15 26 1012.9 1011.1 0.0
07/03:26pm 32.8 26.5 7.6 21 14.1 ENE 30 48 16 26 1012.9 1011.1 0.0
07/03:00pm 32.8 26.3 8.3 22 13.9 ENE 32 41 17 22 1013.2 1011.4 0.0
07/02:39pm 32.6 26.8 8.1 22 13.8 NE 28 46 15 25 1013.5 1011.7 0.0
07/02:30pm 33.1 26.5 7.9 21 14.2 ENE 32 46 17 25 1013.6 1011.8 0.0
07/02:27pm 32.4 25.9 8.0 22 13.7 ENE 32 46 17 25 1013.7 1011.9 0.0
07/02:00pm 32.5 26.7 8.0 22 13.8 ENE 28 37 15 20 1013.9 1012.1 0.0
07/01:50pm 32.5 26.3 8.0 22 13.8 ENE 30 48 16 26 1014.0 1012.2 0.0
07/01:30pm 32.1 26.4 8.4 23 13.4 ENE 28 39 15 21 1014.3 1012.5 0.0
07/01:00pm 31.2 25.6 8.8 25 12.7 ENE 28 43 15 23 1014.7 1012.8 0.0
07/12:30pm 30.4 24.8 8.7 26 12.2 ENE 28 46 15 25 1015.1 1013.3 0.0
07/12:02pm 30.4 24.6 9.3 27 12.0 ENE 30 50 16 27 1015.5 1013.7 0.0
07/12:00pm 29.1 23.1 8.7 28 11.4 ENE 30 39 16 21 1015.6 1013.8 0.0
07/11:30am 28.8 22.9 9.0 29 11.1 ENE 30 44 16 24 1016.1 1014.3 0.0
07/11:00am 27.3 21.1 9.2 32 10.1 ENE 32 46 17 25 1016.5 1014.7 0.0
07/10:30am 26.5 20.6 8.9 33 9.8 ENE 30 43 16 23 1016.8 1015.0 0.0
07/10:00am 25.4 19.9 9.3 36 8.9 E 28 43 15 23 1017.2 1015.4 0.0
07/09:30am 24.0 17.5 8.8 38 8.3 ENE 33 48 18 26 1017.4 1015.7 0.0
07/09:00am 23.2 17.7 9.2 41 7.7 ENE 28 41 15 22 1017.5 1015.8 -
07/08:30am 21.7 15.5 9.3 45 6.7 E 32 44 17 24 1017.9 1016.1 -
07/08:00am 20.6 14.4 9.2 48 6.1 E 32 43 17 23 1018.0 1016.2 -
07/07:30am 19.2 12.7 9.1 52 5.4 E 33 46 18 25 1017.9 1016.1 -
07/07:18am 19.0 12.8 9.5 54 5.1 E 32 50 17 27 1017.8 1016.0 -
07/07:00am 18.3 11.9 9.4 56 4.7 E 33 46 18 25 1017.7 1015.9 -
07/06:30am 17.0 10.8 9.2 60 4.1 E 32 50 17 27 1017.5 1015.8 -
07/06:00am 16.5 11.8 9.4 63 3.7 E 24 39 13 21 1017.3 1015.5 -
07/05:30am 15.8 11.5 9.5 66 3.3 E 22 33 12 18 1017.0 1015.2 -
07/05:00am 15.4 10.7 9.3 67 3.2 E 24 35 13 19 1016.7 1014.9 -
07/04:30am 15.5 10.8 9.4 67 3.2 ESE 24 35 13 19 1016.4 1014.6 -
07/04:00am 15.4 10.8 9.5 68 3.1 ESE 24 39 13 21 1016.1 1014.3 -
07/03:30am 15.5 10.8 9.4 67 3.2 ESE 24 33 13 18 1015.9 1014.1 -
07/03:00am 15.6 10.6 9.5 67 3.2 ESE 26 39 14 21 1016.0 1014.2 0.0
07/02:30am 15.7 11.8 9.6 67 3.2 ESE 20 30 11 16 1016.1 1014.3 -
07/02:00am 15.8 11.5 9.5 66 3.3 ESE 22 33 12 18 1016.2 1014.4 -
07/01:30am 16.0 10.6 9.4 65 3.5 ESE 28 39 15 21 1016.0 1014.2 -
07/01:00am 16.3 11.3 9.5 64 3.6 ESE 26 41 14 22 1016.1 1014.3 -
07/12:30am 16.7 12.0 9.4 62 3.9 ESE 24 37 13 20 1016.2 1014.4 -
07/12:00am 17.3 11.5 9.5 60 4.1 ESE 30 43 16 23 1015.8 1014.0 -
 
Date/Time
WST
Temp
°C
App
Temp
°C
Dew
Point
°C
Rel
Hum
%
Delta-T
°C
Wind Press
QNH
hPa
Press
MSL
hPa
Rain since
9am
mm
Dir  Spd
km/h
Gust
km/h
Spd
kts
Gust
kts
06/11:30pm 18.0 11.2 9.4 57 4.6 SE 35 46 19 25 1015.8 1014.0 -
06/11:00pm 18.7 12.3 9.2 54 5.1 SE 33 46 18 25 1015.6 1013.8 -
06/10:30pm 19.4 13.6 9.3 52 5.4 ESE 30 44 16 24 1015.7 1013.9 -
06/10:00pm 20.2 12.3 9.5 50 5.8 SE 41 59 22 32 1015.5 1013.7 -
06/09:30pm 21.0 12.8 9.6 48 6.2 SE 43 57 23 31 1015.2 1013.4 -
06/09:00pm 22.2 13.0 9.4 44 7.0 SE 48 61 26 33 1014.5 1012.7 0.0
06/08:30pm 23.6 15.1 9.2 40 7.9 SE 44 56 24 30 1014.1 1012.3 -
06/08:00pm 25.4 17.0 8.8 35 9.1 SE 43 56 23 30 1013.6 1011.8 -
06/07:43pm 27.7 20.6 8.1 29 10.8 SE 35 54 19 29 1013.2 1011.4 -
06/07:30pm 29.0 22.9 6.4 24 12.2 SE 28 37 15 20 1013.0 1011.2 -
06/07:00pm 29.9 23.6 5.9 22 12.9 SE 28 37 15 20 1012.7 1010.9 -
06/06:30pm 31.1 25.1 5.5 20 13.7 ESE 26 35 14 19 1012.5 1010.7 -
06/06:00pm 32.0 26.2 6.2 20 14.1 SE 26 37 14 20 1012.2 1010.3 -
06/05:30pm 32.6 28.1 6.0 19 14.5 ESE 19 28 10 15 1011.9 1010.0 -
06/05:00pm 32.7 28.0 6.1 19 14.5 SE 20 32 11 17 1011.9 1010.0 -
06/04:30pm 32.6 29.0 6.7 20 14.3 E 15 26 8 14 1012.0 1010.1 -
06/04:00pm 33.7 28.4 6.9 19 14.9 SE 24 35 13 19 1012.1 1010.2 -
06/03:30pm 32.4 28.5 7.3 21 14.0 ESE 17 28 9 15 1012.3 1010.5 -
06/03:00pm 32.1 27.6 7.0 21 13.9 SSE 20 33 11 18 1012.5 1010.7 -
06/02:30pm 33.0 29.3 7.8 21 14.2 E 17 26 9 14 1012.9 1011.1 -
06/02:00pm 31.8 28.1 8.1 23 13.3 ESE 17 32 9 17 1013.2 1011.4 -
06/01:30pm 31.7 28.0 8.0 23 13.3 ESE 17 26 9 14 1013.6 1011.8 -
06/01:00pm 31.4 27.8 8.4 24 12.9 E 17 28 9 15 1013.9 1012.1 -
06/12:51pm 30.7 27.6 9.0 26 12.3 ESE 15 24 8 13 1014.0 1012.2 -
06/10:30am 26.8 22.2 9.6 34 9.7 E 24 35 13 19 1015.6 1013.8 0.0
06/10:00am 25.8 21.8 9.2 35 9.2 E 20 35 11 19 1015.8 1014.0 0.0
06/09:30am 24.8 19.7 9.1 37 8.7 ESE 26 39 14 21 1016.0 1014.2 0.0
06/09:00am 22.8 18.1 9.2 42 7.4 ESE 24 39 13 21 1016.4 1014.6 0.0
06/08:30am 21.4 16.3 9.3 46 6.6 ESE 26 39 14 21 1016.6 1014.8 0.0
06/08:00am 20.4 15.4 9.6 50 5.9 ESE 26 41 14 22 1016.7 1014.9 0.0
06/07:30am 19.5 14.2 9.7 53 5.3 SE 28 39 15 21 1016.7 1014.9 0.0
06/07:00am 17.9 11.9 10.0 60 4.3 SE 32 39 17 21 1016.8 1015.0 0.0
06/06:30am 16.6 11.0 10.2 66 3.4 SE 30 39 16 21 1016.7 1014.9 0.0
06/06:00am 15.9 10.7 10.4 70 3.0 SE 28 35 15 19 1016.6 1014.8 0.0
06/05:30am 15.1 10.2 10.1 72 2.7 SE 26 33 14 18 1016.3 1014.5 0.0
06/05:00am 14.9 9.6 9.7 71 2.7 SE 28 35 15 19 1015.9 1014.1 0.0
06/04:30am 15.4 10.8 9.7 69 3.0 SE 24 32 13 17 1015.7 1013.9 0.0
06/04:00am 15.8 10.4 9.5 66 3.3 SE 28 35 15 19 1015.3 1013.5 0.0
06/03:30am 16.3 12.2 8.8 61 3.9 SE 20 32 11 17 1015.2 1013.4 0.0
06/03:00am 16.8 10.4 8.5 58 4.3 SE 32 41 17 22 1014.4 1012.6 0.0
06/02:30am 17.3 10.7 7.6 53 5.0 SE 32 41 17 22 1014.3 1012.5 0.0
06/02:00am 17.9 11.4 6.7 48 5.7 SE 30 37 16 20 1014.4 1012.6 0.0
06/01:30am 18.5 12.4 6.4 45 6.1 SSE 28 35 15 19 1014.4 1012.6 0.0
06/01:00am 19.2 12.4 5.3 40 6.9 SE 30 37 16 20 1014.5 1012.7 0.0
06/12:30am 19.0 11.1 6.2 43 6.5 SSE 37 46 20 25 1014.7 1012.8 0.0
06/12:00am 20.5 11.9 4.5 35 7.9 SE 39 50 21 27 1014.7 1012.8 0.0
 
Date/Time
WST
Temp
°C
App
Temp
°C
Dew
Point
°C
Rel
Hum
%
Delta-T
°C
Wind Press
QNH
hPa
Press
MSL
hPa
Rain since
9am
mm
Dir  Spd
km/h
Gust
km/h
Spd
kts
Gust
kts
05/11:30pm 21.4 13.6 4.9 34 8.3 SE 35 46 19 25 1014.5 1012.7 0.0
05/11:00pm 22.1 13.2 5.1 33 8.6 SE 41 54 22 29 1014.4 1012.6 0.0
05/10:30pm 23.2 15.7 6.5 34 8.7 SE 35 46 19 25 1014.1 1012.3 0.0
05/10:00pm 24.1 16.6 6.4 32 9.3 SE 35 46 19 25 1013.7 1011.9 0.0
05/09:30pm 25.3 16.8 7.0 31 9.7 SE 41 50 22 27 1013.4 1011.6 0.0
05/09:07pm 26.0 17.0 7.1 30 10.1 SE 44 63 24 34 1013.1 1011.3 0.0
05/09:00pm 26.4 16.7 7.4 30 10.3 SE 48 63 26 34 1013.0 1011.2 0.0
05/08:30pm 27.6 19.7 8.0 29 10.8 SE 39 54 21 29 1012.5 1010.7 0.0
05/08:09pm 30.3 23.4 2.5 17 14.1 SSE 28 46 15 25 1011.8 1009.9 0.0
05/08:00pm 30.3 23.8 2.5 17 14.1 S 26 32 14 17 1011.8 1009.9 0.0
05/07:30pm 31.1 24.3 3.2 17 14.4 S 28 37 15 20 1011.6 1009.7 0.0
05/07:00pm 32.0 26.9 3.1 16 15.0 SSE 19 26 10 14 1011.4 1009.6 0.0
05/06:30pm 33.2 28.7 2.1 14 16.0 SSW 15 19 8 10 1011.2 1009.4 0.0
05/06:00pm 33.7 28.7 1.5 13 16.4 S 17 24 9 13 1011.0 1009.2 0.0
05/05:30pm 34.1 28.6 0.7 12 16.8 S 19 26 10 14 1010.9 1009.1 0.0
05/05:00pm 34.4 29.3 0.9 12 17.0 S 17 30 9 16 1010.7 1008.9 0.0
05/04:30pm 34.3 29.4 2.0 13 16.7 SW 17 24 9 13 1010.7 1008.9 0.0
05/04:00pm 34.6 29.9 3.2 14 16.6 SSE 17 24 9 13 1010.7 1008.9 0.0
05/03:30pm 34.9 31.8 5.4 16 16.1 SSE 11 22 6 12 1010.8 1009.0 0.0
05/03:00pm 34.1 30.4 4.7 16 15.8 SSE 13 24 7 13 1011.2 1009.4 0.0
05/02:30pm 34.5 29.8 5.0 16 16.0 WSW 19 39 10 21 1011.6 1009.7 0.0
05/02:00pm 34.1 30.8 4.7 16 15.8 NE 11 20 6 11 1011.9 1010.0 0.0
05/01:30pm 33.7 30.3 6.1 18 15.1 SE 13 19 7 10 1012.3 1010.5 0.0
05/01:00pm 33.7 31.1 6.1 18 15.2 NNE 9 17 5 9 1012.7 1010.9 0.0
05/12:30pm 33.5 29.5 6.7 19 14.8 WSW 17 33 9 18 1013.2 1011.4 0.0
05/12:27pm 33.8 30.6 7.0 19 14.9 SW 13 33 7 18 1013.1 1011.3 0.0
05/12:00pm 32.2 30.1 8.4 23 13.4 ENE 9 15 5 8 1013.7 1011.9 0.0
05/11:30am 32.1 29.6 8.4 23 13.4 N 11 20 6 11 1014.1 1012.3 0.0
05/11:00am 30.4 28.5 7.6 24 12.6 NE 7 17 4 9 1014.5 1012.7 0.0
05/10:30am 30.5 28.5 8.8 26 12.2 E 9 24 5 13 1015.0 1013.2 0.0
05/10:00am 30.1 28.0 9.6 28 11.7 NNE 11 19 6 10 1015.4 1013.6 0.0
05/09:30am 28.7 26.3 9.9 31 10.7 NE 13 22 7 12 1015.9 1014.1 0.0
05/09:00am 27.5 24.6 9.8 33 10.0 ENE 15 24 8 13 1016.2 1014.4 0.0
05/08:30am 26.6 23.8 9.9 35 9.4 ENE 15 26 8 14 1016.5 1014.7 0.0
05/08:00am 24.9 21.6 9.6 38 8.5 ENE 17 24 9 13 1016.6 1014.8 0.0
05/07:30am 23.8 19.9 9.4 40 7.9 NE 20 28 11 15 1016.7 1014.9 0.0
05/07:00am 23.1 19.4 9.5 42 7.5 ENE 19 26 10 14 1016.7 1014.9 0.0
05/06:30am 21.4 17.9 8.7 44 6.8 ENE 17 20 9 11 1016.8 1015.0 0.0
05/06:00am 20.1 17.3 8.4 47 6.2 E 13 19 7 10 1016.7 1014.9 0.0

Other formats

Comma delimited format used in spreadsheet applications
http://www.bom.gov.au/fwo/IDW60801/IDW60801.95634.axf

JavaScript Object Notation format (JSON) in row-major order
http://www.bom.gov.au/fwo/IDW60801/IDW60801.95634.json

Data quality

Most of these data are generated automatically and are frequently updated. Quality checks on data are not normally performed. It is possible for incorrect values to appear. Refer to information at About Latest Weather Observations and please check the disclaimer before using these data.